SBMQSBMA

Guest
Details From SBMQ - MACAPA
To SBMA - Maraba
Flight Number -
Tags generated
Created
Modified
Stats Distance 356 nm / 659 km
Max Altitude 35,000 ft / 10,668 m
Waypoints 6
Social Downloads 1
Likes 0
Share

Download

Looking for another format? Having issues loading an existing format? Contact us
Advertisement - Login to hide

Notes

Basic altitude profile: - Ascent Rate: 500ft/min - Ascent Speed: 250kts - Cruise Altitude: 8000ft - Cruise Speed: 420kts - Descent Rate: 500ft/min - Descent Speed: 250kts Options: - Use NATs: yes - Use PACOTS: yes - Use low airways: yes - Use high airways: yes

Route

SBMQ APURU PACAI 300S05000W TUI SBMA

ID Type Via Altitude (ft/m) Position (lat/lon) Dist (leg/tot) Name
O SBMQ APT - 0 / 0 0.05064 / -51.07216 - / 0 nm MACAPA
APURU FIX - 23,800 / 7,254 -1.09250 / -50.87100 69 / 69 nm
PACAI FIX - 35,000 / 10,668 -2.46717 / -50.66267 83 / 153 nm
300S05000W LATLON - 31,400 / 9,571 -3.00000 / -50.00000 51 / 204 nm
TUI VOR - 21,500 / 6,553 -3.80134 / -49.72133 50 / 255 nm TUCURUI VOR-DME
O SBMA APT - 0 / 0 -5.36859 / -49.13802 100 / 355 nm Maraba

Altitude Profile

Advertisement - Login to hide

Weather


0- 5 10 15 20 25 30 35+ Temperature / °C

Clouds and Precipitation
Forecast for 2021-06-19 18:00 UTC. Updated 2 hours ago

Ground ~20,000 ft ~40,000 ft Winds

SBMQ

Details ICAO SBMQ (MCP)
Name Macapa, Alberto A Intl
Region Brazil
Timezone America/Belem (UTC-3.0)
Stats Elevation 56 ft / 17 m (AMSL)
Location 0.050621° -51.072100°
Runways 1
Magnetic Variation 19.479° W

METAR

SBMQ 191700Z 07008KT 9999 SCT027 FEW030TCU 33/26 Q1014

Decode

TAF

TAF SBMQ 190825Z 1912/2012 05005KT 9999 SCT015 TX33/1917Z TN25/2009Z BECMG 2003/2005 34005KT TEMPO 2006/2010 BKN010 BECMG 2010/2012 05005KT RMK PHI

Decode

Departure Runways

ID Width Length Bearing (true/mag) Surface Threshold Overrun Markings Lighting
08 148 ft / 45 m 6,896 ft / 2,102 m 57.22° / 76.70° ASPHALT 0 ft / 0 m 0 ft / 0 m APP EDGE THRESHOLD REIL-OMNI
26 148 ft / 45 m 6,896 ft / 2,102 m 237.22° / 256.70° ASPHALT 0 ft / 0 m 0 ft / 0 m APP EDGE THRESHOLD REIL-OMNI

SBMA

Details ICAO SBMA (MAB)
Name Maraba Airport
Region Brazil
Timezone America/Belem (UTC-3.0)
Stats Elevation 356 ft / 109 m (AMSL)
Location -5.368660° -49.138100°
Runways 1
Magnetic Variation 20.736° W

METAR

SBMA 191700Z 01005KT 9999 SCT023 FEW025TCU 33/// Q1014

Decode

TAF

TAF SBMA 190825Z 1912/1924 34005KT 9999 SCT017 TN28/1912Z TX34/1918Z RMK PHI

Decode

Destination Runways

ID Width Length Bearing (true/mag) Surface Threshold Overrun Markings Lighting
07 148 ft / 45 m 6,568 ft / 2,002 m 50.35° / 71.09° ASPHALT 0 ft / 0 m 210 ft / 64 m APP EDGE THRESHOLD
25 148 ft / 45 m 6,568 ft / 2,002 m 230.35° / 251.09° ASPHALT 0 ft / 0 m 197 ft / 60 m APP EDGE THRESHOLD

Popular Alternatives